createdAt,value
2022-11-13T00:00:48.566Z,11.53
2022-11-13T00:06:00.953Z,11.52
2022-11-13T00:11:19.458Z,11.51
2022-11-13T00:16:22.664Z,11.51
2022-11-13T00:21:27.405Z,11.51
2022-11-13T00:26:31.432Z,11.50
2022-11-13T00:31:34.578Z,11.49
2022-11-13T00:36:37.951Z,11.48
2022-11-13T00:41:41.468Z,11.48
2022-11-13T00:46:44.574Z,11.48
2022-11-13T00:51:47.783Z,11.49
2022-11-13T00:56:51.399Z,11.49
2022-11-13T01:01:54.785Z,11.49
2022-11-13T01:06:57.952Z,11.48
2022-11-13T01:12:00.923Z,11.48
2022-11-13T01:17:04.130Z,11.48
2022-11-13T01:22:07.237Z,11.47
2022-11-13T01:27:10.340Z,11.47
2022-11-13T01:32:13.650Z,11.47
2022-11-13T01:37:16.959Z,11.46
2022-11-13T01:42:20.372Z,11.45
2022-11-13T01:47:24.914Z,11.45
2022-11-13T01:52:36.722Z,11.44
2022-11-13T01:57:41.422Z,11.43
2022-11-13T02:02:44.776Z,11.43
2022-11-13T02:07:47.780Z,11.43
2022-11-13T02:12:52.010Z,11.44
2022-11-13T02:17:58.418Z,11.44
2022-11-13T02:23:29.453Z,11.43
2022-11-13T02:28:32.662Z,11.44
2022-11-13T02:33:35.871Z,11.43
2022-11-13T02:38:41.535Z,11.43
2022-11-13T02:43:44.538Z,11.43
2022-11-13T02:48:47.510Z,11.43
2022-11-13T02:53:50.750Z,11.43
2022-11-13T02:58:54.468Z,11.43
2022-11-13T03:03:58.393Z,11.42
2022-11-13T03:09:01.910Z,11.42
2022-11-13T03:14:05.116Z,11.42
2022-11-13T03:19:08.326Z,11.41
2022-11-13T03:24:11.329Z,11.41
2022-11-13T03:29:15.527Z,11.40
2022-11-13T03:34:18.872Z,11.41
2022-11-13T03:39:22.804Z,11.40
2022-11-13T03:44:25.915Z,11.39
2022-11-13T03:49:29.110Z,11.39
2022-11-13T03:54:32.314Z,11.38
2022-11-13T03:59:36.240Z,11.36
2022-11-13T04:04:39.548Z,11.34
2022-11-13T04:09:42.758Z,11.32
2022-11-13T04:14:45.761Z,11.30
2022-11-13T04:19:49.074Z,11.28
2022-11-13T04:24:52.280Z,11.25
2022-11-13T04:29:55.281Z,11.22
2022-11-13T04:34:58.389Z,11.21
2022-11-13T04:40:01.394Z,11.21
2022-11-13T04:45:05.213Z,11.20
2022-11-13T04:50:08.877Z,11.19
2022-11-13T04:55:13.075Z,11.18
2022-11-13T05:00:18.091Z,11.18
2022-11-13T05:05:21.731Z,11.18
2022-11-13T05:10:25.041Z,11.18
2022-11-13T05:15:28.453Z,11.18
2022-11-13T05:20:31.557Z,11.18
2022-11-13T05:25:34.816Z,11.18
2022-11-13T05:30:37.975Z,11.19
2022-11-13T05:35:41.285Z,11.19
2022-11-13T05:40:44.697Z,11.19
2022-11-13T05:45:48.007Z,11.19
2022-11-13T05:50:51.216Z,11.19
2022-11-13T05:55:54.525Z,11.19
2022-11-13T06:01:17.229Z,11.19
2022-11-13T06:06:22.687Z,11.20
2022-11-13T06:11:28.724Z,11.20
2022-11-13T06:16:37.519Z,11.20
2022-11-13T06:21:41.288Z,11.21
2022-11-13T06:26:44.599Z,11.22
2022-11-13T06:31:48.020Z,11.24
2022-11-13T06:36:51.421Z,11.27
2022-11-13T06:41:54.629Z,11.30
2022-11-13T06:46:57.734Z,11.34
2022-11-13T06:52:00.839Z,11.38
2022-11-13T06:57:04.459Z,11.42
2022-11-13T07:02:11.311Z,11.47
2022-11-13T07:07:14.689Z,11.52
2022-11-13T07:12:18.695Z,11.55
2022-11-13T07:17:21.695Z,11.58
2022-11-13T07:22:25.418Z,11.61
2022-11-13T07:27:28.528Z,11.62
2022-11-13T07:32:32.034Z,11.63
2022-11-13T07:37:35.240Z,11.65
2022-11-13T07:42:40.294Z,11.64
2022-11-13T07:47:44.525Z,11.63
2022-11-13T07:52:47.529Z,11.62
2022-11-13T07:57:51.963Z,11.63
2022-11-13T08:02:56.551Z,11.71
2022-11-13T08:08:00.125Z,11.82
2022-11-13T08:13:08.921Z,11.93
2022-11-13T08:18:12.066Z,12.02
2022-11-13T08:23:15.276Z,12.13
2022-11-13T08:28:18.482Z,12.21
2022-11-13T08:33:21.592Z,12.30
2022-11-13T08:38:26.465Z,12.40
2022-11-13T08:43:30.666Z,12.49
2022-11-13T08:48:34.387Z,12.54
2022-11-13T08:53:37.618Z,12.63
2022-11-13T08:58:40.803Z,12.71
2022-11-13T09:03:44.442Z,12.78
2022-11-13T09:08:47.527Z,12.86
2022-11-13T09:13:53.322Z,12.90
2022-11-13T09:18:57.118Z,12.95
2022-11-13T09:24:00.324Z,13.00
2022-11-13T09:29:03.941Z,13.08
2022-11-13T09:34:08.388Z,13.14
2022-11-13T09:39:11.589Z,13.18
2022-11-13T09:44:44.332Z,13.23
2022-11-13T09:49:53.840Z,13.31
2022-11-13T09:54:57.153Z,13.36
2022-11-13T10:00:09.272Z,13.41
2022-11-13T10:05:46.475Z,13.47
2022-11-13T10:11:09.648Z,13.54
2022-11-13T10:16:22.803Z,13.53
2022-11-13T10:22:34.915Z,13.45
2022-11-13T10:27:35.948Z,13.35
2022-11-13T10:32:39.591Z,13.27
2022-11-13T10:38:00.949Z,13.20
2022-11-13T10:43:15.810Z,13.16
2022-11-13T10:48:21.469Z,13.14
2022-11-13T10:53:27.447Z,13.13
2022-11-13T10:58:31.281Z,13.15
2022-11-13T11:03:34.676Z,13.20
2022-11-13T11:08:37.885Z,13.29
2022-11-13T11:13:41.605Z,13.40
2022-11-13T11:18:58.338Z,13.53
2022-11-13T11:24:09.030Z,13.60
2022-11-13T11:29:15.061Z,13.67
2022-11-13T11:34:32.120Z,13.74
2022-11-13T11:39:46.389Z,13.83
2022-11-13T11:45:01.375Z,13.88
2022-11-13T11:50:12.769Z,13.87
2022-11-13T11:55:34.310Z,13.85
2022-11-13T12:00:43.661Z,13.82
2022-11-13T12:06:02.334Z,13.80
2022-11-13T12:11:23.766Z,13.79
2022-11-13T12:16:56.545Z,13.77
2022-11-13T12:22:07.395Z,13.78
2022-11-13T12:27:26.133Z,13.80
2022-11-13T12:32:57.368Z,13.78
2022-11-13T12:38:00.803Z,13.71
2022-11-13T12:43:18.005Z,13.62
2022-11-13T12:48:28.706Z,13.50
2022-11-13T12:54:01.736Z,13.37
2022-11-13T12:59:31.001Z,13.32
2022-11-13T13:04:56.890Z,13.29
2022-11-13T13:10:20.778Z,13.23
2022-11-13T13:15:46.794Z,13.17
2022-11-13T13:21:08.159Z,13.11
2022-11-13T13:26:26.489Z,13.04
2022-11-13T13:32:20.444Z,12.97
2022-11-13T13:37:43.490Z,12.87
2022-11-13T13:43:02.578Z,12.79
2022-11-13T13:48:11.000Z,12.72
2022-11-13T13:53:22.399Z,12.66
2022-11-13T13:58:33.187Z,12.60
2022-11-13T14:03:36.348Z,12.54
2022-11-13T14:08:39.602Z,12.50
2022-11-13T14:13:43.126Z,12.45
2022-11-13T14:18:46.947Z,12.40
2022-11-13T14:23:52.731Z,12.36
2022-11-13T14:28:59.677Z,12.31
2022-11-13T14:34:11.733Z,12.25
2022-11-13T14:39:28.955Z,12.19
2022-11-13T14:44:34.416Z,12.15
2022-11-13T14:49:44.752Z,12.11
2022-11-13T14:55:13.697Z,12.06
2022-11-13T15:00:20.293Z,12.02
2022-11-13T15:05:23.845Z,11.99
2022-11-13T15:10:29.225Z,11.95
2022-11-13T15:15:32.779Z,11.92
2022-11-13T15:20:36.910Z,11.88
2022-11-13T15:25:40.125Z,11.84
2022-11-13T15:30:44.403Z,11.82
2022-11-13T15:35:47.862Z,11.80
2022-11-13T15:40:51.342Z,11.77
2022-11-13T15:45:54.695Z,11.75
2022-11-13T15:50:58.613Z,11.74
2022-11-13T15:56:05.512Z,11.72
2022-11-13T16:01:13.355Z,11.71
2022-11-13T16:06:21.084Z,11.71
2022-11-13T16:11:24.656Z,11.70
2022-11-13T16:16:35.967Z,11.66
2022-11-13T16:21:39.270Z,11.64
2022-11-13T16:26:50.562Z,11.62
2022-11-13T16:31:54.083Z,11.60
2022-11-13T16:36:57.906Z,11.57
2022-11-13T16:42:01.314Z,11.54
2022-11-13T16:47:25.207Z,11.50
2022-11-13T16:52:30.258Z,11.48
2022-11-13T16:57:34.079Z,11.47
2022-11-13T17:02:37.495Z,11.44
2022-11-13T17:07:41.226Z,11.44
2022-11-13T17:12:44.624Z,11.43
2022-11-13T17:17:48.245Z,11.42
2022-11-13T17:22:51.448Z,11.42
2022-11-13T17:27:55.169Z,11.41
2022-11-13T17:32:58.805Z,11.40
2022-11-13T17:38:03.239Z,11.38
2022-11-13T17:43:10.121Z,11.36
2022-11-13T17:48:13.531Z,11.35
2022-11-13T17:53:16.737Z,11.34
2022-11-13T17:58:20.211Z,11.31
2022-11-13T18:03:23.768Z,11.28
2022-11-13T18:08:27.216Z,11.27
2022-11-13T18:13:32.273Z,11.25
2022-11-13T18:18:36.363Z,11.22
2022-11-13T18:23:39.878Z,11.21
2022-11-13T18:28:44.315Z,11.19
2022-11-13T18:33:48.243Z,11.17
2022-11-13T18:38:53.742Z,11.14
2022-11-13T18:43:57.275Z,11.10
2022-11-13T18:49:00.322Z,11.06
2022-11-13T18:54:09.489Z,11.02
2022-11-13T18:59:14.120Z,11.00
2022-11-13T19:04:25.246Z,10.99
2022-11-13T19:09:29.848Z,10.96
2022-11-13T19:14:33.158Z,10.95
2022-11-13T19:19:36.677Z,10.95
2022-11-13T19:24:40.193Z,10.95
2022-11-13T19:29:45.938Z,10.95
2022-11-13T19:34:49.691Z,10.95
2022-11-13T19:39:55.186Z,10.95
2022-11-13T19:44:59.989Z,10.93
2022-11-13T19:50:05.297Z,10.92
2022-11-13T19:55:10.285Z,10.92
2022-11-13T20:00:16.138Z,10.92
2022-11-13T20:05:20.085Z,10.92
2022-11-13T20:10:23.915Z,10.92
2022-11-13T20:15:28.448Z,10.91
2022-11-13T20:20:32.374Z,10.90
2022-11-13T20:25:35.886Z,10.88
2022-11-13T20:30:39.913Z,10.86
2022-11-13T20:35:43.327Z,10.85
2022-11-13T20:40:46.636Z,10.85
2022-11-13T20:45:50.257Z,10.84
2022-11-13T20:50:54.007Z,10.84
2022-11-13T20:55:57.288Z,10.83
2022-11-13T21:01:10.287Z,10.81
2022-11-13T21:06:18.265Z,10.80
2022-11-13T21:11:26.398Z,10.80
2022-11-13T21:16:31.229Z,10.79
2022-11-13T21:21:35.468Z,10.78
2022-11-13T21:26:40.116Z,10.77
2022-11-13T21:31:43.916Z,10.76
2022-11-13T21:36:48.327Z,10.74
2022-11-13T21:41:53.684Z,10.72
2022-11-13T21:46:58.675Z,10.70
2022-11-13T21:52:04.408Z,10.68
2022-11-13T21:57:08.638Z,10.67
2022-11-13T22:02:12.545Z,10.65
2022-11-13T22:07:16.277Z,10.63
2022-11-13T22:12:20.125Z,10.61
2022-11-13T22:17:24.045Z,10.60
2022-11-13T22:22:27.363Z,10.59
2022-11-13T22:27:30.665Z,10.57
2022-11-13T22:32:33.975Z,10.56
2022-11-13T22:37:37.184Z,10.54
2022-11-13T22:42:40.289Z,10.54
2022-11-13T22:47:43.603Z,10.53
2022-11-13T22:52:46.909Z,10.52
2022-11-13T22:57:49.913Z,10.51
2022-11-13T23:02:53.225Z,10.50
2022-11-13T23:07:56.330Z,10.51
2022-11-13T23:13:00.049Z,10.51
2022-11-13T23:18:07.163Z,10.52
2022-11-13T23:23:13.126Z,10.53
2022-11-13T23:28:16.842Z,10.53
2022-11-13T23:33:20.463Z,10.54
2022-11-13T23:38:24.179Z,10.53
2022-11-13T23:43:53.920Z,10.53
2022-11-13T23:48:51.792Z,10.53
2022-11-13T23:53:54.999Z,10.53
2022-11-13T23:58:58.107Z,10.53
